Time;durP1;ratioP1;P1;durP2;ratioP2;P2;SDS_P1;SDS_P2;PMS_P1;PMS_P2;Temp;Humidity;BMP_temperature;BMP_pressure;BME280_temperature;BME280_humidity;BME280_pressure;Samples;Min_cycle;Max_cycle;Signal;HPM_P1;HPM_P2
2021/10/21 00:02:25;;;;;;;;;3.00;0.75;;;;;16.56;55.85;99361.47;4952311;28;45434;-79
2021/10/21 00:04:51;;;;;;;;;0.75;0.00;;;;;16.55;55.71;99372.28;4950375;28;45287;-69
2021/10/21 00:07:16;;;;;;;;;2.00;0.00;;;;;16.54;56.10;99376.75;4954145;28;45370;-67
2021/10/21 00:09:42;;;;;;;;;1.00;0.00;;;;;16.55;55.66;99356.31;4950536;28;45354;-71
2021/10/21 00:12:08;;;;;;;;;2.75;0.00;;;;;16.57;55.69;99355.16;4952739;28;46348;-69
2021/10/21 00:14:35;;;;;;;;;0.50;0.00;;;;;16.59;55.80;99341.69;4952790;28;45289;-69
2021/10/21 00:17:01;;;;;;;;;2.75;0.00;;;;;16.58;55.61;99351.50;4951508;28;45416;-69
2021/10/21 00:19:28;;;;;;;;;3.00;0.00;;;;;16.55;55.21;99351.84;4950668;28;45739;-70
2021/10/21 00:21:54;;;;;;;;;2.25;0.75;;;;;16.57;55.80;99368.44;4950741;28;45461;-69
2021/10/21 00:24:20;;;;;;;;;3.50;0.50;;;;;16.59;55.23;99389.53;4952644;28;45442;-71
2021/10/21 00:26:47;;;;;;;;;0.00;0.00;;;;;16.59;54.78;99378.91;4950670;28;45538;-72
2021/10/21 00:29:12;;;;;;;;;4.75;0.00;;;;;16.57;55.03;99380.91;4948439;28;45489;-80
2021/10/21 00:31:38;;;;;;;;;0.75;0.75;;;;;16.54;55.06;99381.25;4949643;28;45800;-73
2021/10/21 00:34:04;;;;;;;;;0.25;0.00;;;;;16.54;55.04;99390.06;4952303;28;45226;-69
2021/10/21 00:36:30;;;;;;;;;1.25;0.75;;;;;16.54;54.95;99395.38;4951903;28;45286;-66
2021/10/21 00:38:56;;;;;;;;;1.75;0.00;;;;;16.54;55.14;99389.22;4952035;28;45353;-71
2021/10/21 00:41:22;;;;;;;;;1.75;0.00;;;;;16.53;54.76;99384.91;4950062;28;46095;-73
2021/10/21 00:43:48;;;;;;;;;1.00;0.00;;;;;16.51;55.00;99398.38;4951913;28;45281;-66
2021/10/21 00:46:14;;;;;;;;;6.25;0.50;;;;;16.51;55.01;99387.72;4952035;28;45442;-73
2021/10/21 00:48:42;;;;;;;;;0.00;0.00;;;;;16.51;54.80;99393.03;4952288;28;45714;-71
2021/10/21 00:51:13;;;;;;;;;2.25;0.00;;;;;16.50;55.01;99430.41;4949514;28;45383;-71
2021/10/21 00:53:39;;;;;;;;;1.00;0.00;;;;;16.47;55.03;99373.09;4950237;28;45595;-70
2021/10/21 00:56:07;;;;;;;;;1.00;0.25;;;;;16.45;54.89;99410.47;4950639;28;45478;-69
2021/10/21 00:58:34;;;;;;;;;1.00;0.00;;;;;16.41;55.15;99389.66;4947459;28;45327;-72
2021/10/21 01:01:01;;;;;;;;;0.00;0.00;;;;;16.39;55.06;99373.88;4951345;28;45986;-66
2021/10/21 01:03:27;;;;;;;;;0.00;0.00;;;;;16.40;55.23;99380.03;4951644;28;45441;-72
2021/10/21 01:05:53;;;;;;;;;1.25;0.50;;;;;16.36;55.50;99413.25;4947619;28;45460;-70
2021/10/21 01:08:20;;;;;;;;;1.25;0.00;;;;;16.31;55.84;99424.34;4951592;28;45386;-72
2021/10/21 01:10:47;;;;;;;;;1.00;0.00;;;;;16.29;56.20;99460.91;4949768;28;45287;-69
2021/10/21 01:13:13;;;;;;;;;0.25;0.00;;;;;16.24;56.41;99465.00;4947803;28;45313;-68
2021/10/21 01:15:39;;;;;;;;;1.00;0.00;;;;;16.17;56.24;99465.63;4951865;28;45161;-72
2021/10/21 01:18:04;;;;;;;;;0.00;0.00;;;;;16.13;55.92;99456.31;4950893;28;45568;-75
2021/10/21 01:20:30;;;;;;;;;0.75;0.00;;;;;16.09;55.85;99470.91;4950936;28;46098;-69
2021/10/21 01:22:56;;;;;;;;;0.75;0.00;;;;;16.09;55.78;99448.81;4949454;28;45351;-71
2021/10/21 01:25:22;;;;;;;;;2.25;0.00;;;;;16.08;55.93;99482.53;4949374;28;45425;-73
2021/10/21 01:27:49;;;;;;;;;0.00;0.00;;;;;16.10;55.69;99483.19;4951108;28;45651;-73
2021/10/21 01:30:21;;;;;;;;;0.00;0.00;;;;;16.07;55.75;99504.75;4949084;28;45468;-74
2021/10/21 01:32:48;;;;;;;;;1.00;0.00;;;;;16.07;55.36;99495.97;4949647;28;45319;-72
2021/10/21 01:35:13;;;;;;;;;0.00;0.00;;;;;16.03;55.22;99484.81;4949917;28;45362;-73
2021/10/21 01:37:39;;;;;;;;;0.00;0.00;;;;;16.02;55.30;99503.56;4951945;28;45385;-67
2021/10/21 01:40:05;;;;;;;;;0.00;0.00;;;;;15.98;55.06;99521.66;4953346;28;45366;-73
2021/10/21 01:42:31;;;;;;;;;0.00;0.00;;;;;15.96;54.70;99520.97;4953726;28;45266;-72
2021/10/21 01:44:56;;;;;;;;;1.50;0.00;;;;;15.93;54.85;99531.06;4951142;28;45354;-69
2021/10/21 01:47:22;;;;;;;;;1.00;0.00;;;;;15.89;54.91;99542.00;4954263;28;45429;-72
2021/10/21 01:49:48;;;;;;;;;0.00;0.00;;;;;15.88;55.25;99543.00;4951326;28;45976;-76
2021/10/21 01:52:15;;;;;;;;;0.00;0.00;;;;;15.82;55.08;99599.38;4950048;28;45708;-72
2021/10/21 01:54:41;;;;;;;;;1.50;0.00;;;;;15.70;55.57;99574.00;4948447;28;45513;-68
2021/10/21 01:57:06;;;;;;;;;0.00;0.00;;;;;15.65;55.56;99571.00;4940253;28;45490;-62
2021/10/21 01:59:32;;;;;;;;;0.75;0.00;;;;;15.59;55.44;99560.94;4953363;28;46416;-70
2021/10/21 02:01:59;;;;;;;;;0.00;0.00;;;;;15.55;55.89;99584.28;4952880;28;45591;-69
2021/10/21 02:04:24;;;;;;;;;0.00;0.00;;;;;15.53;55.65;99570.34;4952799;28;45414;-68
2021/10/21 02:06:50;;;;;;;;;0.00;0.00;;;;;15.53;55.20;99593.41;4952133;28;45612;-69
2021/10/21 02:09:15;;;;;;;;;0.00;0.00;;;;;15.52;55.30;99599.69;4953815;28;45484;-69
2021/10/21 02:11:41;;;;;;;;;1.00;0.00;;;;;15.51;55.11;99608.66;4954370;28;45403;-68
2021/10/21 02:14:06;;;;;;;;;0.00;0.00;;;;;15.48;55.04;99611.59;4951106;28;45294;-68
2021/10/21 02:16:31;;;;;;;;;0.50;0.00;;;;;15.45;55.11;99647.22;4944528;28;45326;-68
2021/10/21 02:18:57;;;;;;;;;1.25;0.00;;;;;15.43;54.74;99624.50;4944576;28;45432;-68
2021/10/21 02:21:22;;;;;;;;;0.75;0.00;;;;;15.39;54.55;99628.41;4944541;28;45256;-70
2021/10/21 02:23:48;;;;;;;;;0.00;0.00;;;;;15.38;54.69;99638.19;4944394;28;45398;-69
2021/10/21 02:26:13;;;;;;;;;0.00;0.00;;;;;15.33;54.53;99669.66;4944446;28;45235;-69
2021/10/21 02:28:39;;;;;;;;;0.50;0.00;;;;;15.30;54.84;99678.72;4944282;28;45223;-69
2021/10/21 02:31:05;;;;;;;;;0.00;0.00;;;;;15.28;55.04;99701.09;4944248;28;45310;-69
2021/10/21 02:33:30;;;;;;;;;0.00;0.00;;;;;15.25;54.76;99704.88;4943363;28;45637;-69
2021/10/21 02:35:55;;;;;;;;;0.00;0.00;;;;;15.24;54.64;99711.13;4944705;28;45481;-69
2021/10/21 02:38:21;;;;;;;;;0.00;0.00;;;;;15.21;55.00;99727.38;4944138;28;45576;-68
2021/10/21 02:40:47;;;;;;;;;0.00;0.00;;;;;15.19;54.77;99736.47;4944277;28;45398;-69
2021/10/21 02:43:13;;;;;;;;;0.00;0.00;;;;;15.15;54.98;99746.50;4944269;28;45559;-68
2021/10/21 02:45:39;;;;;;;;;0.00;0.00;;;;;15.13;55.08;99747.63;4944214;28;45552;-70
2021/10/21 02:48:05;;;;;;;;;1.75;0.00;;;;;15.11;55.13;99760.22;4943924;28;46262;-69
2021/10/21 02:50:30;;;;;;;;;0.25;0.00;;;;;15.07;55.24;99823.31;4943607;28;45269;-68
2021/10/21 02:52:56;;;;;;;;;0.50;0.00;;;;;15.03;55.37;99800.72;4943995;28;45397;-68
2021/10/21 02:55:22;;;;;;;;;0.00;0.00;;;;;15.03;55.59;99813.97;4944171;28;45236;-69
2021/10/21 02:57:47;;;;;;;;;0.00;0.00;;;;;15.00;55.57;99824.84;4943723;28;45338;-68
2021/10/21 03:00:13;;;;;;;;;1.75;0.00;;;;;14.97;55.51;99851.66;4943768;28;45337;-69
2021/10/21 03:02:39;;;;;;;;;1.00;0.00;;;;;14.92;55.79;99843.28;4944170;28;45234;-69
2021/10/21 03:05:06;;;;;;;;;0.75;0.00;;;;;14.89;56.06;99855.03;4944052;28;45480;-67
2021/10/21 03:07:31;;;;;;;;;0.00;0.00;;;;;14.84;56.47;99861.72;4943672;28;45522;-68
2021/10/21 03:09:56;;;;;;;;;0.00;0.00;;;;;14.78;56.61;99887.00;4942999;28;45243;-68
2021/10/21 03:12:22;;;;;;;;;0.00;0.00;;;;;14.73;56.64;99907.75;4943363;28;45538;-67
2021/10/21 03:14:47;;;;;;;;;0.00;0.00;;;;;14.67;56.97;99926.84;4943820;28;45496;-68
2021/10/21 03:17:14;;;;;;;;;1.00;0.00;;;;;14.62;56.80;99940.53;4943497;28;45981;-67
2021/10/21 03:19:39;;;;;;;;;1.50;0.00;;;;;14.58;57.14;99965.63;4943790;28;45432;-68
2021/10/21 03:22:05;;;;;;;;;3.00;0.00;;;;;14.49;57.20;99974.38;4943494;28;45315;-68
2021/10/21 03:24:30;;;;;;;;;3.50;0.75;;;;;14.42;57.55;100015.63;4943701;28;45255;-68
2021/10/21 03:26:56;;;;;;;;;2.25;0.00;;;;;14.41;57.47;100028.03;4943429;28;45265;-68
2021/10/21 03:29:21;;;;;;;;;1.75;0.00;;;;;14.34;57.58;100056.03;4943209;28;45380;-67
2021/10/21 03:31:47;;;;;;;;;1.00;1.00;;;;;14.28;57.90;100067.13;4943560;28;45215;-68
2021/10/21 03:34:12;;;;;;;;;0.00;0.00;;;;;14.23;58.27;100127.63;4943690;28;45508;-67
2021/10/21 03:36:38;;;;;;;;;1.00;0.00;;;;;14.16;58.79;100121.16;4943254;28;46092;-68
2021/10/21 03:39:04;;;;;;;;;0.75;0.00;;;;;14.08;59.14;100152.75;4943380;28;45195;-68
2021/10/21 03:41:29;;;;;;;;;0.50;0.00;;;;;13.96;59.04;100149.31;4943236;28;45264;-67
2021/10/21 03:43:55;;;;;;;;;2.75;0.00;;;;;13.89;59.78;100175.44;4943371;28;45288;-67
2021/10/21 03:46:20;;;;;;;;;2.25;0.00;;;;;13.85;59.92;100181.97;4940174;28;46046;-68
2021/10/21 03:48:46;;;;;;;;;3.00;0.00;;;;;13.83;60.02;100206.91;4934213;28;45407;-67
2021/10/21 03:51:12;;;;;;;;;0.00;0.00;;;;;13.74;60.15;100208.44;4943302;28;45318;-69
2021/10/21 03:53:37;;;;;;;;;2.25;0.00;;;;;13.67;59.86;100226.66;4943247;28;45667;-68
2021/10/21 03:56:03;;;;;;;;;1.00;0.00;;;;;13.57;60.35;100244.22;4942926;28;45585;-67
2021/10/21 03:58:29;;;;;;;;;0.00;0.00;;;;;13.50;59.98;100268.63;4943073;28;45338;-68
2021/10/21 04:00:54;;;;;;;;;0.00;0.00;;;;;13.47;60.35;100264.44;4942038;28;45255;-67
2021/10/21 04:03:20;;;;;;;;;2.50;0.00;;;;;13.45;60.31;100292.84;4943232;28;45417;-67
2021/10/21 04:05:45;;;;;;;;;0.00;0.00;;;;;13.45;60.23;100292.84;4942874;28;45369;-68
2021/10/21 04:08:10;;;;;;;;;0.00;0.00;;;;;13.43;59.90;100301.81;4942736;28;45149;-67
2021/10/21 04:10:36;;;;;;;;;1.75;0.00;;;;;13.38;59.92;100308.34;4942917;28;45560;-67
2021/10/21 04:13:01;;;;;;;;;0.00;0.00;;;;;13.38;59.60;100318.09;4943423;28;45379;-67
2021/10/21 04:15:27;;;;;;;;;1.75;0.00;;;;;13.35;59.65;100336.81;4942686;28;46082;-67
2021/10/21 04:17:53;;;;;;;;;0.00;0.00;;;;;13.35;59.30;100345.63;4942466;28;45251;-67
2021/10/21 04:20:20;;;;;;;;;1.00;0.00;;;;;13.33;59.69;100351.97;4942892;28;45358;-68
2021/10/21 04:22:45;;;;;;;;;0.00;0.00;;;;;13.31;59.70;100352.09;4942921;28;45492;-67
2021/10/21 04:25:11;;;;;;;;;1.00;0.00;;;;;13.35;59.55;100368.56;4942638;28;45991;-67
2021/10/21 04:27:37;;;;;;;;;0.25;0.00;;;;;13.35;59.61;100363.28;4942701;28;45497;-67
2021/10/21 04:30:04;;;;;;;;;1.00;0.00;;;;;13.34;59.91;100380.94;4942513;28;45377;-67
2021/10/21 04:32:29;;;;;;;;;1.00;0.00;;;;;13.35;59.62;100379.13;4942789;28;45489;-67
2021/10/21 04:34:55;;;;;;;;;0.00;0.00;;;;;13.37;59.48;100395.75;4942326;28;45892;-68
2021/10/21 04:37:21;;;;;;;;;0.75;0.00;;;;;13.37;59.44;100406.34;4942549;28;45390;-67
2021/10/21 04:39:46;;;;;;;;;0.00;0.00;;;;;13.38;59.23;100411.50;4942322;28;45346;-67
2021/10/21 04:42:12;;;;;;;;;4.00;0.00;;;;;13.39;59.34;100410.56;4942621;28;45207;-69
2021/10/21 04:44:37;;;;;;;;;2.50;1.00;;;;;13.43;59.41;100421.75;4941957;28;45639;-68
2021/10/21 04:47:03;;;;;;;;;2.00;0.00;;;;;13.46;59.26;100425.97;4933897;28;45282;-68
2021/10/21 04:49:28;;;;;;;;;2.00;0.00;;;;;13.47;59.23;100444.38;4938335;28;45392;-68
2021/10/21 04:51:54;;;;;;;;;3.25;0.00;;;;;13.51;59.52;100443.19;4942540;28;45191;-68
2021/10/21 04:54:19;;;;;;;;;4.75;0.00;;;;;13.53;59.36;100459.78;4942124;28;45511;-69
2021/10/21 04:56:45;;;;;;;;;0.00;0.00;;;;;13.54;59.55;100466.75;4942262;28;45348;-68
2021/10/21 04:59:10;;;;;;;;;1.50;0.00;;;;;13.57;59.71;100468.31;4942364;28;45612;-68
2021/10/21 05:01:36;;;;;;;;;0.75;0.25;;;;;13.56;59.45;100470.13;4942409;28;45327;-68
2021/10/21 05:04:01;;;;;;;;;0.25;0.00;;;;;13.57;59.55;100478.91;4942113;28;45317;-68
2021/10/21 05:06:27;;;;;;;;;1.50;0.25;;;;;13.59;59.16;100488.44;4942120;28;45339;-69
2021/10/21 05:08:53;;;;;;;;;0.00;0.00;;;;;13.61;59.85;100502.38;4942114;28;45247;-68
2021/10/21 05:11:18;;;;;;;;;0.25;0.25;;;;;13.65;59.65;100518.88;4942259;28;45418;-68
2021/10/21 05:13:44;;;;;;;;;2.00;0.25;;;;;13.64;59.74;100515.38;4944770;28;45386;-68
2021/10/21 05:16:09;;;;;;;;;0.50;0.00;;;;;13.65;59.28;100517.06;4945222;28;45434;-68
2021/10/21 05:18:35;;;;;;;;;0.75;0.00;;;;;13.64;59.41;100533.06;4945579;28;45319;-68
2021/10/21 05:21:01;;;;;;;;;2.25;1.00;;;;;13.65;59.60;100537.41;4944421;28;45537;-69
2021/10/21 05:23:26;;;;;;;;;0.50;0.50;;;;;13.69;59.52;100546.81;4945182;28;46014;-68
2021/10/21 05:25:52;;;;;;;;;4.25;0.00;;;;;13.67;58.91;100552.22;4945402;28;45205;-69
2021/10/21 05:28:17;;;;;;;;;0.25;0.00;;;;;13.69;58.82;100565.34;4945243;28;45450;-68
2021/10/21 05:30:43;;;;;;;;;0.00;0.00;;;;;13.68;58.84;100563.66;4945307;28;45476;-68
2021/10/21 05:33:08;;;;;;;;;2.00;0.00;;;;;13.67;58.76;100565.47;4945117;28;46118;-68
2021/10/21 05:35:34;;;;;;;;;4.00;1.00;;;;;13.69;58.73;100570.63;4945336;28;45223;-68
2021/10/21 05:38:00;;;;;;;;;1.50;0.75;;;;;13.74;58.62;100567.63;4945078;28;45233;-68
2021/10/21 05:40:26;;;;;;;;;1.00;0.00;;;;;13.75;58.61;100578.13;4945395;28;45339;-68
2021/10/21 05:42:52;;;;;;;;;3.50;0.25;;;;;13.77;58.96;100585.94;4944765;28;45352;-68
2021/10/21 05:45:17;;;;;;;;;3.50;0.00;;;;;13.82;58.49;100592.56;4947459;28;45457;-68
2021/10/21 05:47:43;;;;;;;;;3.00;0.50;;;;;13.86;58.35;100591.38;4947489;28;45538;-69
2021/10/21 05:50:10;;;;;;;;;3.50;1.00;;;;;13.90;58.52;100592.84;4941132;28;46024;-68
2021/10/21 05:52:36;;;;;;;;;1.50;0.00;;;;;13.93;58.19;100592.63;4943298;28;45338;-72
2021/10/21 05:55:02;;;;;;;;;3.50;2.00;;;;;13.95;58.20;100592.50;4954869;28;45467;-62
2021/10/21 05:57:28;;;;;;;;;1.00;1.00;;;;;13.99;58.58;100614.31;4953619;28;45377;-61
2021/10/21 05:59:53;;;;;;;;;5.25;1.00;;;;;14.02;58.59;100601.66;4953813;28;45243;-62
2021/10/21 06:02:19;;;;;;;;;2.00;1.00;;;;;14.00;58.29;100613.34;4950785;28;45706;-62
2021/10/21 06:04:44;;;;;;;;;1.50;0.00;;;;;14.02;58.54;100619.38;4953927;28;45591;-62
2021/10/21 06:07:10;;;;;;;;;0.25;0.00;;;;;14.00;58.35;100619.47;4951651;28;45496;-63
2021/10/21 06:09:35;;;;;;;;;5.25;2.00;;;;;14.00;58.28;100618.63;4944378;28;45557;-63
2021/10/21 06:12:01;;;;;;;;;4.50;1.75;;;;;14.04;58.79;100622.72;4944614;28;45341;-62
2021/10/21 06:14:30;;;;;;;;;2.00;0.00;;;;;14.03;58.78;100626.34;4944125;28;45325;-64
2021/10/21 06:16:56;;;;;;;;;3.00;1.00;;;;;14.02;58.50;100632.59;4944451;28;45239;-64
2021/10/21 06:19:22;;;;;;;;;1.50;0.50;;;;;14.03;58.71;100642.22;4944066;28;45200;-63
2021/10/21 06:21:48;;;;;;;;;1.00;1.00;;;;;14.03;58.80;100648.38;4951200;28;45462;-63
2021/10/21 06:24:14;;;;;;;;;1.00;1.00;;;;;14.02;59.01;100643.19;4954423;28;45512;-63
2021/10/21 06:26:40;;;;;;;;;2.50;1.00;;;;;14.02;59.18;100641.38;4953961;28;45337;-63
2021/10/21 06:29:05;;;;;;;;;3.00;1.25;;;;;14.03;59.33;100653.66;4951336;28;45553;-64
2021/10/21 06:31:31;;;;;;;;;1.00;0.75;;;;;14.01;59.55;100645.00;4945238;28;46187;-65
2021/10/21 06:33:57;;;;;;;;;1.25;0.50;;;;;14.00;59.80;100655.72;4950599;28;45490;-63
2021/10/21 06:36:22;;;;;;;;;2.00;2.00;;;;;13.99;59.65;100643.44;4953536;28;45509;-64
2021/10/21 06:38:48;;;;;;;;;4.25;1.00;;;;;13.97;59.72;100649.66;4946467;28;45610;-61
2021/10/21 06:41:13;;;;;;;;;2.50;1.00;;;;;13.96;60.00;100650.63;4952639;28;46391;-62
2021/10/21 06:43:40;;;;;;;;;1.75;1.00;;;;;13.99;59.96;100656.69;4950864;28;45409;-64
2021/10/21 06:46:06;;;;;;;;;0.75;0.75;;;;;13.99;60.15;100660.16;4952672;28;45303;-62
2021/10/21 06:48:32;;;;;;;;;0.75;0.50;;;;;14.00;60.24;100668.97;4954643;28;45408;-63
2021/10/21 06:50:57;;;;;;;;;4.25;1.00;;;;;13.97;60.19;100677.97;4952230;28;45358;-62
2021/10/21 06:53:23;;;;;;;;;2.25;1.00;;;;;13.97;60.66;100675.31;4950381;28;45358;-60
2021/10/21 06:55:48;;;;;;;;;2.75;1.00;;;;;13.97;60.34;100670.00;4953680;28;45323;-60
2021/10/21 06:58:14;;;;;;;;;5.25;1.00;;;;;13.99;60.29;100678.72;4952995;28;45294;-60
2021/10/21 07:00:41;;;;;;;;;2.50;1.00;;;;;14.02;60.25;100682.94;4951984;28;45939;-60
2021/10/21 07:03:09;;;;;;;;;2.25;2.00;;;;;14.01;60.51;100694.47;4951457;28;45373;-61
2021/10/21 07:05:45;;;;;;;;;1.00;0.25;;;;;14.02;60.37;100693.53;4951489;28;45362;-62
2021/10/21 07:08:11;;;;;;;;;6.50;1.00;;;;;14.02;60.47;100702.31;4950989;28;45274;-61
2021/10/21 07:10:38;;;;;;;;;3.00;0.00;;;;;14.03;60.42;100701.34;4952226;28;45271;-61
2021/10/21 07:13:05;;;;;;;;;3.00;1.00;;;;;14.03;60.55;100706.66;4951802;28;45250;-61
2021/10/21 07:15:31;;;;;;;;;2.25;0.75;;;;;14.05;60.76;100714.47;4953694;28;45368;-61
2021/10/21 07:17:57;;;;;;;;;2.00;0.75;;;;;14.05;60.37;100717.13;4954015;28;45502;-60
2021/10/21 07:20:23;;;;;;;;;2.75;1.00;;;;;14.05;60.49;100717.97;4952413;28;46278;-61
2021/10/21 07:22:48;;;;;;;;;2.25;1.00;;;;;14.06;60.28;100717.03;4949451;28;45347;-62
2021/10/21 07:25:13;;;;;;;;;3.00;0.75;;;;;14.07;60.31;100717.88;4951514;28;45255;-62
2021/10/21 07:27:40;;;;;;;;;1.00;0.00;;;;;14.08;60.37;100731.00;4950848;28;45377;-61
2021/10/21 07:30:06;;;;;;;;;2.25;1.00;;;;;14.10;60.31;100750.25;4952919;28;46169;-61
2021/10/21 07:32:32;;;;;;;;;3.50;1.75;;;;;14.11;60.11;100736.06;4953127;28;45234;-62
2021/10/21 07:34:57;;;;;;;;;4.75;0.00;;;;;14.14;60.25;100742.91;4951941;28;45236;-61
2021/10/21 07:37:23;;;;;;;;;4.25;0.75;;;;;14.17;60.04;100743.56;4951935;28;46375;-61
2021/10/21 07:39:49;;;;;;;;;7.25;0.00;;;;;14.19;60.01;100738.97;4948045;28;45367;-62
2021/10/21 07:42:15;;;;;;;;;1.00;1.00;;;;;14.19;60.25;100749.56;4952870;28;45535;-60
2021/10/21 07:44:44;;;;;;;;;3.00;2.25;;;;;14.22;60.10;100770.56;4952294;28;45389;-62
2021/10/21 07:47:10;;;;;;;;;5.75;2.00;;;;;14.21;60.02;100776.78;4951110;28;45490;-61
2021/10/21 07:49:36;;;;;;;;;4.25;2.00;;;;;14.22;60.35;100770.56;4951235;28;46223;-60
2021/10/21 07:52:02;;;;;;;;;1.50;0.25;;;;;14.25;60.21;100783.56;4950692;28;45319;-61
2021/10/21 07:54:29;;;;;;;;;1.00;1.00;;;;;14.27;60.00;100780.81;4951401;28;45432;-62
2021/10/21 07:56:56;;;;;;;;;3.00;1.75;;;;;14.28;60.33;100795.75;4945934;28;45643;-62
2021/10/21 07:59:22;;;;;;;;;3.00;1.00;;;;;14.30;60.22;100788.53;4947647;28;45382;-62
2021/10/21 08:01:48;;;;;;;;;2.75;2.75;;;;;14.33;60.38;100788.31;4949168;28;45326;-61
2021/10/21 08:04:14;;;;;;;;;4.00;2.75;;;;;14.36;60.27;100798.66;4951817;28;45311;-61
2021/10/21 08:06:43;;;;;;;;;4.00;2.25;;;;;14.41;60.11;100793.03;4949014;28;45317;-61
2021/10/21 08:09:08;;;;;;;;;7.00;3.75;;;;;14.43;59.91;100786.66;4952607;28;45487;-61
2021/10/21 08:11:34;;;;;;;;;1.25;0.25;;;;;14.42;59.76;100803.53;4950882;28;45474;-62
2021/10/21 08:13:59;;;;;;;;;4.00;2.75;;;;;14.41;59.88;100808.94;4950454;28;45432;-61
2021/10/21 08:16:25;;;;;;;;;4.50;1.50;;;;;14.44;59.78;100803.41;4950432;28;45584;-61
2021/10/21 08:18:50;;;;;;;;;8.00;1.50;;;;;14.48;59.87;100818.16;4950768;28;45900;-62
2021/10/21 08:21:16;;;;;;;;;6.25;2.00;;;;;14.51;59.52;100812.63;4951783;28;45479;-61
2021/10/21 08:23:42;;;;;;;;;5.00;2.50;;;;;14.51;59.69;100805.50;4950901;28;45527;-61
2021/10/21 08:26:08;;;;;;;;;3.50;2.00;;;;;14.55;59.50;100806.16;4950513;28;45672;-61
2021/10/21 08:28:34;;;;;;;;;1.00;0.75;;;;;14.61;59.36;100829.53;4950591;28;45483;-61
2021/10/21 08:31:00;;;;;;;;;3.50;1.50;;;;;14.64;59.27;100813.41;4948183;28;45585;-61
2021/10/21 08:33:25;;;;;;;;;4.00;2.00;;;;;14.70;59.55;100809.47;4951412;28;45507;-61
2021/10/21 08:35:51;;;;;;;;;2.75;1.25;;;;;14.76;59.28;100820.41;4948943;28;45482;-61
2021/10/21 08:38:16;;;;;;;;;4.75;1.00;;;;;14.76;59.19;100822.22;4950802;28;45981;-61
2021/10/21 08:40:42;;;;;;;;;4.75;1.00;;;;;14.80;59.38;100821.06;4948091;28;45354;-62
2021/10/21 08:43:08;;;;;;;;;2.50;1.00;;;;;14.85;59.18;100829.50;4953572;28;45354;-61
2021/10/21 08:45:35;;;;;;;;;4.50;1.50;;;;;14.88;58.99;100823.13;4950070;28;45569;-61
2021/10/21 08:48:05;;;;;;;;;3.75;0.00;;;;;14.92;59.40;100825.41;4953572;28;45339;-61
2021/10/21 08:50:33;;;;;;;;;3.75;1.75;;;;;15.00;59.00;100832.78;4953928;28;45464;-61
2021/10/21 08:53:03;;;;;;;;;4.25;0.75;;;;;15.02;58.87;100830.88;4956189;28;46403;-61
2021/10/21 08:55:29;;;;;;;;;7.50;2.00;;;;;15.06;58.90;100833.16;4957611;28;45407;-61
2021/10/21 08:57:55;;;;;;;;;3.25;1.00;;;;;15.12;58.67;100831.00;4955844;28;46742;-61
2021/10/21 09:00:21;;;;;;;;;4.50;1.00;;;;;15.16;58.77;100825.34;4952745;28;45179;-61
2021/10/21 09:02:55;;;;;;;;;3.00;1.00;;;;;15.19;58.28;100829.59;4957583;28;45516;-62
2021/10/21 09:08:11;;;;;;;;;2.75;1.50;;;;;15.29;58.23;100822.59;4951677;28;45544;-62
2021/10/21 09:10:53;;;;;;;;;2.75;1.00;;;;;15.34;58.30;100826.59;4956877;28;45471;-61
2021/10/21 09:13:30;;;;;;;;;2.50;1.00;;;;;15.38;58.08;100826.34;4955197;28;45245;-61
2021/10/21 09:15:58;;;;;;;;;5.50;2.00;;;;;15.36;57.72;100826.47;4953715;28;45408;-61
2021/10/21 09:18:25;;;;;;;;;0.00;0.00;;;;;15.34;57.49;100836.38;4959746;28;45333;-61
2021/10/21 09:20:52;;;;;;;;;3.75;0.00;;;;;15.35;57.57;100835.41;4955695;28;45530;-61
2021/10/21 09:23:24;;;;;;;;;2.25;1.00;;;;;15.39;57.40;100836.00;4955157;28;45504;-61
2021/10/21 09:25:50;;;;;;;;;0.75;0.75;;;;;15.47;57.17;100839.72;4949982;28;45520;-61
2021/10/21 09:28:25;;;;;;;;;1.50;1.00;;;;;15.52;57.08;100839.38;4954305;28;45381;-61
2021/10/21 09:31:07;;;;;;;;;3.75;1.00;;;;;15.59;56.94;100843.25;4950008;28;45345;-61
2021/10/21 09:33:47;;;;;;;;;2.75;1.00;;;;;15.67;56.49;100819.63;4951342;28;45351;-62
2021/10/21 09:36:13;;;;;;;;;2.50;0.75;;;;;15.72;56.37;100829.88;4948210;28;45473;-61
2021/10/21 09:38:58;;;;;;;;;4.25;2.50;;;;;15.78;56.41;100834.69;4957826;28;45315;-62
2021/10/21 09:41:30;;;;;;;;;1.50;1.00;;;;;15.81;56.27;100835.31;4953727;28;45339;-64
2021/10/21 09:43:57;;;;;;;;;4.50;1.00;;;;;15.87;55.67;100818.88;4953760;28;45497;-62
2021/10/21 09:46:41;;;;;;;;;1.00;1.00;;;;;15.88;55.87;100833.88;4955118;28;45175;-62
2021/10/21 09:49:36;;;;;;;;;1.75;1.00;;;;;15.91;55.97;100820.31;4954483;28;46301;-61
2021/10/21 09:52:02;;;;;;;;;4.00;1.25;;;;;15.99;55.75;100838.31;4951835;28;45441;-62
2021/10/21 09:54:31;;;;;;;;;2.00;1.00;;;;;16.01;55.67;100836.38;4948552;28;45305;-61
2021/10/21 09:57:04;;;;;;;;;1.25;0.25;;;;;16.13;55.22;100831.88;4950798;28;45326;-61
2021/10/21 09:59:31;;;;;;;;;2.25;0.75;;;;;16.18;55.20;100840.31;4954151;28;45313;-61
2021/10/21 10:02:14;;;;;;;;;0.25;0.00;;;;;16.21;55.02;100832.09;4953548;28;45401;-61
2021/10/21 10:04:44;;;;;;;;;3.50;0.00;;;;;16.28;55.14;100837.78;4950892;28;45365;-62
2021/10/21 10:07:12;;;;;;;;;4.50;1.00;;;;;16.35;54.28;100845.13;4954924;28;45587;-62
2021/10/21 10:09:37;;;;;;;;;2.50;0.00;;;;;16.44;54.51;100830.22;4950596;28;45504;-62
2021/10/21 10:12:05;;;;;;;;;1.75;0.00;;;;;16.49;53.92;100836.00;4953392;28;45358;-63
2021/10/21 10:14:51;;;;;;;;;2.00;0.75;;;;;16.51;54.21;100838.53;4949157;28;45476;-63
2021/10/21 10:17:17;;;;;;;;;1.00;0.00;;;;;16.56;54.02;100831.00;4953045;28;45655;-63
2021/10/21 10:19:46;;;;;;;;;1.25;1.00;;;;;16.61;54.22;100831.50;4947816;28;45545;-63
2021/10/21 10:22:15;;;;;;;;;5.75;0.00;;;;;16.71;54.21;100840.41;4953316;28;45729;-63
2021/10/21 10:24:41;;;;;;;;;1.00;0.00;;;;;16.74;54.01;100827.69;4949823;28;45517;-63
2021/10/21 10:27:33;;;;;;;;;1.00;0.00;;;;;16.77;53.90;100833.75;4948855;28;45438;-61
2021/10/21 10:30:00;;;;;;;;;2.00;0.00;;;;;16.79;54.20;100829.97;4950575;28;46147;-61
2021/10/21 10:32:35;;;;;;;;;3.25;0.75;;;;;16.86;53.90;100833.81;4947360;28;45600;-61
2021/10/21 10:35:31;;;;;;;;;0.00;0.00;;;;;16.94;53.70;100835.84;4935809;28;45235;-59
2021/10/21 10:38:08;;;;;;;;;2.25;0.50;;;;;16.95;53.70;100827.72;4934337;28;45331;-61
2021/10/21 10:40:44;;;;;;;;;2.25;0.00;;;;;16.98;53.90;100835.47;4939202;28;46252;-60
2021/10/21 10:43:15;;;;;;;;;3.50;0.75;;;;;17.01;54.12;100834.34;4935843;28;45342;-59
2021/10/21 10:45:48;;;;;;;;;1.00;1.00;;;;;17.02;53.74;100823.56;4943562;28;45263;-59
2021/10/21 10:48:16;;;;;;;;;1.50;1.00;;;;;16.97;53.66;100830.22;4939725;28;45458;-59
2021/10/21 10:50:44;;;;;;;;;0.25;0.25;;;;;16.89;53.79;100832.69;4942210;28;45650;-60
2021/10/21 10:53:10;;;;;;;;;1.50;1.00;;;;;16.81;54.20;100838.66;4938128;28;45345;-59
2021/10/21 10:55:45;;;;;;;;;3.75;1.25;;;;;16.70;54.91;100844.06;4943583;28;45293;-59
2021/10/21 10:58:16;;;;;;;;;2.25;0.25;;;;;16.54;55.71;100854.25;4942807;28;45393;-59
2021/10/21 11:00:49;;;;;;;;;2.50;1.00;;;;;16.44;56.34;100862.13;4943069;28;45463;-59
2021/10/21 11:03:37;;;;;;;;;1.00;0.00;;;;;16.34;57.53;100853.19;4943651;28;45393;-59
2021/10/21 11:06:10;;;;;;;;;1.25;1.00;;;;;16.31;57.85;100856.13;4936771;28;45632;-59
2021/10/21 11:08:51;;;;;;;;;4.00;1.00;;;;;16.29;58.43;100852.75;4943314;28;45175;-59
2021/10/21 11:12:01;;;;;;;;;4.00;1.00;;;;;16.30;58.67;100844.66;4942339;28;45352;-59
2021/10/21 11:14:42;;;;;;;;;5.00;2.00;;;;;16.29;58.78;100845.63;4935633;28;45505;-59
2021/10/21 11:17:09;;;;;;;;;6.25;1.75;;;;;16.30;59.01;100836.66;4942969;28;45278;-60
2021/10/21 11:19:44;;;;;;;;;7.00;1.50;;;;;16.35;59.28;100838.94;4943146;28;45350;-60
2021/10/21 11:22:20;;;;;;;;;3.00;0.00;;;;;16.36;59.72;100830.84;4935420;28;46347;-60
2021/10/21 11:24:46;;;;;;;;;2.50;1.75;;;;;16.35;59.78;100842.47;4946574;28;45381;-60
2021/10/21 11:27:15;;;;;;;;;2.50;1.00;;;;;16.30;60.35;100830.50;4950418;28;45423;-60
2021/10/21 11:29:43;;;;;;;;;2.00;2.00;;;;;16.23;61.35;100840.78;4947510;28;45405;-60
2021/10/21 11:32:09;;;;;;;;;5.00;1.00;;;;;16.15;62.26;100836.09;4948105;28;45500;-60